createdAt,value
2023-02-02T00:02:01.126Z,98211.14
2023-02-02T00:04:31.218Z,98206.27
2023-02-02T00:06:58.600Z,98203.31
2023-02-02T00:09:30.423Z,98204.04
2023-02-02T00:11:58.163Z,98201.92
2023-02-02T00:14:24.827Z,98203.27
2023-02-02T00:16:52.576Z,98203.80
2023-02-02T00:19:26.754Z,98204.54
2023-02-02T00:21:54.347Z,98203.94
2023-02-02T00:24:21.676Z,98203.95
2023-02-02T00:26:53.272Z,98203.74
2023-02-02T00:29:22.450Z,98202.80
2023-02-02T00:31:49.737Z,98201.66
2023-02-02T00:34:16.845Z,98197.12
2023-02-02T00:36:43.696Z,98197.05
2023-02-02T00:39:14.222Z,98194.54
2023-02-02T00:41:40.855Z,98188.46
2023-02-02T00:44:26.587Z,98188.14
2023-02-02T00:46:53.255Z,98192.78
2023-02-02T00:49:20.175Z,98189.66
2023-02-02T00:51:49.862Z,98191.65
2023-02-02T00:54:16.469Z,98191.31
2023-02-02T00:56:43.631Z,98188.48
2023-02-02T00:59:11.547Z,98186.23
2023-02-02T01:01:39.173Z,98186.77
2023-02-02T01:04:06.241Z,98183.30
2023-02-02T01:06:32.874Z,98186.94
2023-02-02T01:08:59.974Z,98188.89
2023-02-02T01:11:26.618Z,98185.05
2023-02-02T04:58:49.477Z,98244.98
2023-02-02T05:01:18.493Z,98241.84
2023-02-02T05:03:45.445Z,98243.35
2023-02-02T05:06:15.573Z,98246.38
2023-02-02T05:08:43.489Z,98242.74
2023-02-02T05:11:15.350Z,98240.25
2023-02-02T05:13:46.974Z,98241.12
2023-02-02T05:16:14.625Z,98244.57
2023-02-02T05:18:42.093Z,98245.39
2023-02-02T05:21:08.980Z,98248.02
2023-02-02T05:23:36.065Z,98245.38
2023-02-02T05:26:03.011Z,98248.86
2023-02-02T05:28:29.966Z,98252.19
2023-02-02T05:30:56.996Z,98251.38
2023-02-02T05:33:23.769Z,98257.64
2023-02-02T05:35:51.206Z,98256.70
2023-02-02T05:38:17.764Z,98259.21
2023-02-02T05:40:44.427Z,98265.73
2023-02-02T05:43:11.133Z,98265.25
2023-02-02T05:45:38.014Z,98263.60
2023-02-02T05:48:05.159Z,98265.45
2023-02-02T05:50:31.736Z,98265.84
2023-02-02T05:53:05.025Z,98267.14
2023-02-02T05:55:32.364Z,98268.00
2023-02-02T05:57:59.260Z,98270.98
2023-02-02T06:00:25.949Z,98274.20
2023-02-02T06:02:53.376Z,98280.00
2023-02-02T06:05:20.505Z,98280.63
2023-02-02T06:07:47.918Z,98279.77
2023-02-02T06:10:15.090Z,98279.29
2023-02-02T06:12:43.603Z,98281.96
2023-02-02T06:15:12.843Z,98286.57
2023-02-02T06:17:40.618Z,98290.77
2023-02-02T06:20:07.640Z,98294.70
2023-02-02T06:22:37.389Z,98297.39
2023-02-02T06:25:05.132Z,98297.79
2023-02-02T06:27:32.164Z,98297.27
2023-02-02T06:29:58.836Z,98298.84
2023-02-02T06:32:28.597Z,98302.83
2023-02-02T06:34:55.178Z,98302.79
2023-02-02T06:37:22.545Z,98308.73
2023-02-02T06:39:49.394Z,98312.00
2023-02-02T06:42:21.636Z,98310.89
2023-02-02T06:44:48.984Z,98315.87
2023-02-02T06:47:16.265Z,98315.60
2023-02-02T06:49:43.076Z,98315.94
2023-02-02T06:52:09.918Z,98314.30
2023-02-02T06:54:36.790Z,98313.89
2023-02-02T06:57:03.517Z,98315.81
2023-02-02T06:59:30.224Z,98314.98
2023-02-02T07:01:56.964Z,98314.94
2023-02-02T07:04:23.810Z,98316.73
2023-02-02T07:06:50.441Z,98320.09
2023-02-02T07:09:17.903Z,98321.30
2023-02-02T07:11:45.524Z,98321.17
2023-02-02T07:14:14.045Z,98323.79
2023-02-02T07:16:43.709Z,98324.17
2023-02-02T07:19:10.340Z,98327.23
2023-02-02T07:21:38.314Z,98326.33
2023-02-02T07:24:06.814Z,98322.18
2023-02-02T07:26:35.427Z,98326.73
2023-02-02T07:29:03.986Z,98326.86
2023-02-02T07:31:36.773Z,98324.81
2023-02-02T07:34:03.815Z,98327.05
2023-02-02T07:36:30.744Z,98325.37
2023-02-02T07:38:59.143Z,98326.27
2023-02-02T07:41:27.275Z,98329.73
2023-02-02T07:43:53.947Z,98330.25
2023-02-02T07:46:20.720Z,98326.93
2023-02-02T07:48:47.993Z,98330.77
2023-02-02T07:51:15.956Z,98328.77
2023-02-02T07:53:47.075Z,98330.63
2023-02-02T07:56:14.619Z,98330.17
2023-02-02T07:58:41.435Z,98332.91
2023-02-02T08:01:09.248Z,98331.52
2023-02-02T08:04:52.672Z,98332.71
2023-02-02T08:07:23.970Z,98328.02
2023-02-02T08:09:51.249Z,98329.65
2023-02-02T08:12:18.959Z,98329.04
2023-02-02T08:14:45.746Z,98331.39
2023-02-02T08:17:12.744Z,98334.65
2023-02-02T08:19:39.405Z,98336.42
2023-02-02T08:22:06.031Z,98336.23
2023-02-02T08:24:33.319Z,98342.78
2023-02-02T08:26:59.955Z,98342.28
2023-02-02T08:29:27.222Z,98347.44
2023-02-02T08:31:55.126Z,98351.17
2023-02-02T08:34:21.956Z,98356.14
2023-02-02T08:36:48.551Z,98350.92
2023-02-02T08:39:16.535Z,98348.83
2023-02-02T08:41:44.823Z,98346.98
2023-02-02T08:44:13.462Z,98344.48
2023-02-02T08:46:41.172Z,98349.58
2023-02-02T08:49:11.580Z,98349.48
2023-02-02T08:51:38.333Z,98349.48
2023-02-02T08:54:05.002Z,98350.94
2023-02-02T08:56:33.164Z,98350.27
2023-02-02T08:58:59.880Z,98350.87
2023-02-02T09:01:30.598Z,98350.29
2023-02-02T09:04:08.143Z,98350.27
2023-02-02T09:06:37.044Z,98350.04
2023-02-02T09:09:04.408Z,98350.81
2023-02-02T09:11:32.249Z,98351.05
2023-02-02T09:14:02.031Z,98347.95
2023-02-02T09:16:29.444Z,98345.45
2023-02-02T09:18:56.205Z,98348.39
2023-02-02T09:21:23.180Z,98346.12
2023-02-02T09:23:50.301Z,98343.59
2023-02-02T09:26:19.676Z,98341.89
2023-02-02T09:28:48.201Z,98344.02
2023-02-02T09:31:15.791Z,98348.55
2023-02-02T09:33:42.502Z,98346.23
2023-02-02T09:36:10.438Z,98347.95
2023-02-02T09:38:37.725Z,98346.07
2023-02-02T09:41:29.288Z,98345.45
2023-02-02T09:44:08.331Z,98351.14
2023-02-02T09:46:47.620Z,98354.33
2023-02-02T09:49:17.423Z,98348.11
2023-02-02T09:51:49.091Z,98353.86
2023-02-02T09:54:28.416Z,98356.05
2023-02-02T09:56:56.679Z,98353.63
2023-02-02T09:59:33.210Z,98355.29
2023-02-02T10:02:06.147Z,98352.65
2023-02-02T10:04:37.746Z,98350.05
2023-02-02T10:07:12.541Z,98356.63
2023-02-02T10:09:43.846Z,98355.44
2023-02-02T10:12:17.043Z,98350.20
2023-02-02T10:15:01.226Z,98355.59
2023-02-02T13:30:10.847Z,98376.44
2023-02-02T13:32:39.217Z,98378.13
2023-02-02T13:35:20.351Z,98379.94
2023-02-02T13:38:13.645Z,98382.25
2023-02-02T13:40:40.734Z,98381.98
2023-02-02T13:43:32.441Z,98381.75
2023-02-02T13:45:59.469Z,98380.23
2023-02-02T13:48:27.077Z,98380.08
2023-02-02T13:51:13.364Z,98382.64
2023-02-02T13:53:55.743Z,98384.70
2023-02-02T13:56:43.955Z,98390.99
2023-02-02T13:59:14.009Z,98391.95
2023-02-02T14:01:43.942Z,98394.88
2023-02-02T14:04:21.240Z,98391.95
2023-02-02T14:07:14.503Z,98389.36
2023-02-02T14:09:41.584Z,98390.41
2023-02-02T14:12:09.367Z,98391.70
2023-02-02T14:14:38.658Z,98394.73
2023-02-02T14:17:06.800Z,98391.56
2023-02-02T14:19:41.993Z,98392.36
2023-02-02T14:22:08.919Z,98399.98
2023-02-02T14:24:35.691Z,98403.75
2023-02-02T14:27:23.704Z,98404.34
2023-02-02T14:29:53.459Z,98403.82
2023-02-02T14:32:29.315Z,98403.62
2023-02-02T14:35:09.394Z,98406.33
2023-02-02T14:37:42.657Z,98403.30
2023-02-02T14:40:15.356Z,98404.60
2023-02-02T14:43:41.683Z,98405.69
2023-02-02T14:46:14.389Z,98407.67
2023-02-02T14:48:42.667Z,98407.94
2023-02-02T14:51:23.639Z,98412.42
2023-02-02T14:54:00.676Z,98418.00
2023-02-02T14:56:50.626Z,98422.93
2023-02-02T14:59:38.582Z,98427.89
2023-02-02T15:02:32.013Z,98429.66
2023-02-02T15:05:32.309Z,98428.75
2023-02-02T15:08:10.965Z,98434.78
2023-02-02T15:10:44.821Z,98439.59
2023-02-02T15:13:12.220Z,98440.84
2023-02-02T15:15:40.290Z,98442.81
2023-02-02T15:18:32.686Z,98446.19
2023-02-02T15:20:59.675Z,98442.20
2023-02-02T15:23:41.823Z,98445.31
2023-02-02T15:26:12.377Z,98448.30
2023-02-02T15:28:57.975Z,98451.10
2023-02-02T15:31:42.927Z,98454.20
2023-02-02T15:34:17.154Z,98456.23
2023-02-02T15:36:44.843Z,98455.40
2023-02-02T15:39:21.258Z,98456.75
2023-02-02T15:41:48.112Z,98457.34
2023-02-02T15:44:29.351Z,98459.51
2023-02-02T15:46:57.437Z,98462.53
2023-02-02T15:49:34.217Z,98458.79
2023-02-02T15:52:15.802Z,98467.50
2023-02-02T15:54:53.462Z,98470.96
2023-02-02T15:57:27.925Z,98466.64
2023-02-02T15:59:54.587Z,98468.59
2023-02-02T16:02:35.946Z,98470.02
2023-02-02T16:05:27.474Z,98469.02
2023-02-02T16:08:04.951Z,98471.45
2023-02-02T16:10:33.591Z,98475.75
2023-02-02T16:13:01.011Z,98473.59
2023-02-02T16:15:28.750Z,98474.11
2023-02-02T16:18:03.813Z,98475.67
2023-02-02T16:20:33.459Z,98476.59
2023-02-02T16:23:03.669Z,98476.04
2023-02-02T16:25:32.186Z,98478.02
2023-02-02T16:28:00.327Z,98490.52
2023-02-02T16:30:35.988Z,98491.52
2023-02-02T16:33:36.996Z,98494.62
2023-02-02T16:36:24.444Z,98493.41
2023-02-02T16:38:57.120Z,98492.36
2023-02-02T16:41:34.717Z,98494.70
2023-02-02T16:44:27.283Z,98498.86
2023-02-02T16:46:54.174Z,98502.52
2023-02-02T16:49:28.079Z,98504.48
2023-02-02T16:52:17.639Z,98506.38
2023-02-02T16:55:03.984Z,98509.46
2023-02-02T16:57:34.185Z,98512.52
2023-02-02T17:00:06.483Z,98513.91
2023-02-02T17:02:39.825Z,98516.60
2023-02-02T17:05:07.151Z,98518.39
2023-02-02T17:07:34.556Z,98521.98
2023-02-02T17:10:17.855Z,98519.54
2023-02-02T17:12:45.000Z,98527.63
2023-02-02T17:15:17.719Z,98530.52
2023-02-02T17:17:48.869Z,98527.16
2023-02-02T17:20:16.770Z,98529.98
2023-02-02T17:22:45.738Z,98528.74
2023-02-02T17:25:36.815Z,98532.07
2023-02-02T17:28:06.387Z,98526.45
2023-02-02T17:30:33.217Z,98528.52
2023-02-02T17:33:00.615Z,98528.40
2023-02-02T17:35:29.715Z,98528.34
2023-02-02T17:37:59.901Z,98527.98
2023-02-02T17:40:27.020Z,98532.52
2023-02-02T17:42:54.033Z,98536.48
2023-02-02T17:45:22.859Z,98542.51
2023-02-02T17:47:50.571Z,98539.36
2023-02-02T17:50:17.765Z,98540.84
2023-02-02T17:52:45.523Z,98543.98
2023-02-02T17:55:24.167Z,98547.27
2023-02-02T17:57:51.537Z,98546.80
2023-02-02T18:00:20.309Z,98548.01
2023-02-02T18:02:48.193Z,98553.59
2023-02-02T18:05:16.016Z,98559.98
2023-02-02T18:07:43.741Z,98560.92
2023-02-02T18:10:11.906Z,98560.58
2023-02-02T18:12:40.020Z,98562.82
2023-02-02T18:15:08.713Z,98561.34
2023-02-02T18:17:36.029Z,98563.16
2023-02-02T18:20:03.624Z,98562.88
2023-02-02T18:22:31.013Z,98564.42
2023-02-02T18:25:00.534Z,98566.69
2023-02-02T18:27:28.624Z,98566.66
2023-02-02T18:29:55.337Z,98565.70
2023-02-02T18:32:21.964Z,98564.75
2023-02-02T18:34:54.393Z,98569.92
2023-02-02T18:37:25.386Z,98571.49
2023-02-02T18:39:53.402Z,98574.67
2023-02-02T18:42:20.360Z,98578.08
2023-02-02T18:44:48.084Z,98578.72
2023-02-02T18:47:14.745Z,98579.04
2023-02-02T18:49:41.311Z,98583.38
2023-02-02T18:52:07.916Z,98584.49
2023-02-02T18:54:35.294Z,98586.56
2023-02-02T18:57:03.412Z,98583.73
2023-02-02T18:59:31.746Z,98585.55
2023-02-02T19:01:58.412Z,98587.48
2023-02-02T19:04:25.051Z,98586.36
2023-02-02T19:07:11.227Z,98589.83
2023-02-02T19:09:38.291Z,98593.27
2023-02-02T19:12:13.107Z,98595.45
2023-02-02T19:14:41.857Z,98598.96
2023-02-02T19:17:19.526Z,98597.81
2023-02-02T19:19:46.147Z,98599.95
2023-02-02T19:22:22.825Z,98601.42
2023-02-02T19:24:50.128Z,98598.33
2023-02-02T19:27:19.424Z,98603.74
2023-02-02T19:29:47.193Z,98606.00
2023-02-02T19:32:15.279Z,98607.29
2023-02-02T19:34:42.048Z,98610.63
2023-02-02T19:37:14.669Z,98606.30
2023-02-02T19:39:41.274Z,98610.52
2023-02-02T19:42:08.858Z,98612.10
2023-02-02T19:44:38.299Z,98609.45
2023-02-02T19:47:34.756Z,98608.36
2023-02-02T19:50:21.786Z,98610.89
2023-02-02T19:52:49.096Z,98608.73
2023-02-02T19:55:29.307Z,98610.69
2023-02-02T19:58:00.803Z,98608.11
2023-02-02T20:00:29.843Z,98608.98
2023-02-02T20:03:04.812Z,98611.05
2023-02-02T20:05:41.624Z,98615.56
2023-02-02T20:08:30.323Z,98610.38
2023-02-02T20:11:05.734Z,98613.50
2023-02-02T20:13:40.529Z,98621.09
2023-02-02T20:16:18.529Z,98618.90
2023-02-02T20:18:50.071Z,98620.06
2023-02-02T20:21:36.033Z,98620.17
2023-02-02T20:24:03.063Z,98618.39
2023-02-02T20:26:34.967Z,98619.45
2023-02-02T20:29:23.763Z,98622.31
2023-02-02T20:31:52.151Z,98621.83
2023-02-02T20:34:32.643Z,98619.45
2023-02-02T20:37:15.886Z,98624.16
2023-02-02T20:39:47.315Z,98625.28
2023-02-02T20:42:14.391Z,98623.92
2023-02-02T20:44:41.285Z,98628.47
2023-02-02T20:47:08.902Z,98637.00
2023-02-02T20:49:35.943Z,98634.48
2023-02-02T20:52:04.416Z,98637.71
2023-02-02T20:54:32.401Z,98637.23
2023-02-02T20:56:59.928Z,98639.36
2023-02-02T20:59:26.761Z,98640.27
2023-02-02T21:01:53.628Z,98643.70
2023-02-02T21:04:20.587Z,98645.77
2023-02-02T21:06:49.758Z,98642.86
2023-02-02T21:09:16.723Z,98643.28
2023-02-02T21:11:43.525Z,98643.09
2023-02-02T21:14:10.332Z,98643.48
2023-02-02T21:16:37.268Z,98644.91
2023-02-02T21:19:04.165Z,98645.84
2023-02-02T21:21:30.904Z,98650.02
2023-02-02T21:23:58.087Z,98651.48
2023-02-02T21:26:29.479Z,98652.35
2023-02-02T21:28:57.581Z,98654.88
2023-02-02T21:31:24.672Z,98657.21
2023-02-02T21:33:52.623Z,98658.42
2023-02-02T21:36:36.670Z,98657.61
2023-02-02T21:39:24.296Z,98660.73
2023-02-02T21:41:58.006Z,98660.83
2023-02-02T21:44:24.889Z,98665.02
2023-02-02T21:46:51.535Z,98666.69
2023-02-02T21:49:22.490Z,98666.61
2023-02-02T21:51:49.341Z,98667.55
2023-02-02T21:54:21.991Z,98673.43
2023-02-02T21:56:48.834Z,98677.20
2023-02-02T21:59:18.480Z,98676.14
2023-02-02T22:01:47.435Z,98675.16
2023-02-02T22:04:22.506Z,98676.19
2023-02-02T22:06:53.112Z,98680.00
2023-02-02T22:09:23.461Z,98681.02
2023-02-02T22:11:58.609Z,98681.05
2023-02-02T22:14:41.614Z,98681.39
2023-02-02T22:17:18.091Z,98686.20
2023-02-02T22:19:44.930Z,98689.66
2023-02-02T22:22:32.025Z,98692.13
2023-02-02T22:25:05.911Z,98695.07
2023-02-02T22:27:42.607Z,98692.30
2023-02-02T22:30:27.254Z,98698.27
2023-02-02T22:32:54.774Z,98703.20
2023-02-02T22:35:21.552Z,98704.22
2023-02-02T22:37:48.248Z,98701.17
2023-02-02T22:40:15.885Z,98702.67
2023-02-02T22:42:43.492Z,98708.64
2023-02-02T22:45:10.343Z,98714.92
2023-02-02T22:47:37.242Z,98715.05
2023-02-02T22:50:04.190Z,98714.58
2023-02-02T22:52:31.116Z,98718.38
2023-02-02T22:54:57.914Z,98721.23
2023-02-02T22:57:27.534Z,98720.66
2023-02-02T22:59:54.370Z,98722.31
2023-02-02T23:02:21.244Z,98721.30
2023-02-02T23:04:48.147Z,98726.32
2023-02-02T23:07:14.775Z,98722.55
2023-02-02T23:09:41.365Z,98716.25
2023-02-02T23:12:08.104Z,98721.45
2023-02-02T23:14:36.572Z,98720.52
2023-02-02T23:17:03.610Z,98717.72
2023-02-02T23:19:30.853Z,98719.59
2023-02-02T23:21:57.666Z,98717.51
2023-02-02T23:24:24.213Z,98722.26
2023-02-02T23:26:50.767Z,98719.67
2023-02-02T23:29:17.415Z,98719.57
2023-02-02T23:31:44.064Z,98718.16
2023-02-02T23:34:10.694Z,98718.66
2023-02-02T23:36:37.273Z,98717.57
2023-02-02T23:39:03.860Z,98719.06
2023-02-02T23:41:30.768Z,98723.27
2023-02-02T23:43:59.113Z,98721.15
2023-02-02T23:46:25.835Z,98722.23
2023-02-02T23:48:53.550Z,98724.94
2023-02-02T23:51:20.481Z,98727.18
2023-02-02T23:53:47.416Z,98731.13
2023-02-02T23:56:14.171Z,98730.24
2023-02-02T23:58:40.928Z,98731.75
